sensor_id;sensor_type;location;lat;lon;timestamp;temperature;humidity
66835;HTU21D;53743;51.100;5.874;2023-12-29T00:00:07;12.14;75.65
66835;HTU21D;53743;51.100;5.874;2023-12-29T00:01:11;12.15;75.47
66835;HTU21D;53743;51.100;5.874;2023-12-29T00:02:12;12.15;75.54
66835;HTU21D;53743;51.100;5.874;2023-12-29T00:03:13;12.20;75.52
66835;HTU21D;53743;51.100;5.874;2023-12-29T00:04:15;12.16;75.68
66835;HTU21D;53743;51.100;5.874;2023-12-29T00:05:16;12.17;75.57
66835;HTU21D;53743;51.100;5.874;2023-12-29T00:06:17;12.16;75.57
66835;HTU21D;53743;51.100;5.874;2023-12-29T00:07:19;12.19;75.10
66835;HTU21D;53743;51.100;5.874;2023-12-29T00:08:21;12.19;75.13
66835;HTU21D;53743;51.100;5.874;2023-12-29T00:09:23;12.20;75.16
66835;HTU21D;53743;51.100;5.874;2023-12-29T00:10:25;12.15;75.38
66835;HTU21D;53743;51.100;5.874;2023-12-29T00:11:27;12.11;75.84
66835;HTU21D;53743;51.100;5.874;2023-12-29T00:12:28;12.12;75.57
66835;HTU21D;53743;51.100;5.874;2023-12-29T00:13:30;12.13;75.67
66835;HTU21D;53743;51.100;5.874;2023-12-29T00:14:31;12.20;75.37
66835;HTU21D;53743;51.100;5.874;2023-12-29T00:15:33;12.17;75.33
66835;HTU21D;53743;51.100;5.874;2023-12-29T00:16:33;12.15;75.46
66835;HTU21D;53743;51.100;5.874;2023-12-29T00:17:34;12.10;75.28
66835;HTU21D;53743;51.100;5.874;2023-12-29T00:18:37;12.08;75.68
66835;HTU21D;53743;51.100;5.874;2023-12-29T00:19:39;12.12;75.61
66835;HTU21D;53743;51.100;5.874;2023-12-29T00:20:41;12.15;75.54
66835;HTU21D;53743;51.100;5.874;2023-12-29T00:21:42;12.14;75.23
66835;HTU21D;53743;51.100;5.874;2023-12-29T00:22:44;12.10;75.54
66835;HTU21D;53743;51.100;5.874;2023-12-29T00:23:46;12.05;75.94
66835;HTU21D;53743;51.100;5.874;2023-12-29T00:24:48;12.07;75.95
66835;HTU21D;53743;51.100;5.874;2023-12-29T00:25:49;12.11;75.83
66835;HTU21D;53743;51.100;5.874;2023-12-29T00:26:51;12.11;75.80
66835;HTU21D;53743;51.100;5.874;2023-12-29T00:27:52;12.08;75.67
66835;HTU21D;53743;51.100;5.874;2023-12-29T00:28:55;12.06;75.88
66835;HTU21D;53743;51.100;5.874;2023-12-29T00:29:56;12.07;76.21
66835;HTU21D;53743;51.100;5.874;2023-12-29T00:30:58;12.07;75.97
66835;HTU21D;53743;51.100;5.874;2023-12-29T00:31:59;12.04;75.96
66835;HTU21D;53743;51.100;5.874;2023-12-29T00:33:03;12.02;75.96
66835;HTU21D;53743;51.100;5.874;2023-12-29T00:34:04;12.00;75.78
66835;HTU21D;53743;51.100;5.874;2023-12-29T00:35:06;12.01;75.86
66835;HTU21D;53743;51.100;5.874;2023-12-29T00:36:08;11.97;76.30
66835;HTU21D;53743;51.100;5.874;2023-12-29T00:37:10;11.94;76.21
66835;HTU21D;53743;51.100;5.874;2023-12-29T00:38:11;11.97;76.29
66835;HTU21D;53743;51.100;5.874;2023-12-29T00:39:14;11.98;76.51
66835;HTU21D;53743;51.100;5.874;2023-12-29T00:40:15;11.96;76.31
66835;HTU21D;53743;51.100;5.874;2023-12-29T00:41:19;11.97;76.35
66835;HTU21D;53743;51.100;5.874;2023-12-29T00:42:20;11.99;76.12
66835;HTU21D;53743;51.100;5.874;2023-12-29T00:43:22;12.00;76.02
66835;HTU21D;53743;51.100;5.874;2023-12-29T00:44:23;11.98;76.02
66835;HTU21D;53743;51.100;5.874;2023-12-29T00:45:25;12.01;76.04
66835;HTU21D;53743;51.100;5.874;2023-12-29T00:46:28;11.92;76.27
66835;HTU21D;53743;51.100;5.874;2023-12-29T00:47:30;11.90;76.16
66835;HTU21D;53743;51.100;5.874;2023-12-29T00:48:32;11.89;76.58
66835;HTU21D;53743;51.100;5.874;2023-12-29T00:49:33;11.88;76.78
66835;HTU21D;53743;51.100;5.874;2023-12-29T00:50:35;11.87;76.97
66835;HTU21D;53743;51.100;5.874;2023-12-29T00:51:39;11.91;76.67
66835;HTU21D;53743;51.100;5.874;2023-12-29T00:52:41;11.94;76.57
66835;HTU21D;53743;51.100;5.874;2023-12-29T00:53:44;11.92;76.75
66835;HTU21D;53743;51.100;5.874;2023-12-29T00:54:46;11.93;76.56
66835;HTU21D;53743;51.100;5.874;2023-12-29T00:55:47;11.94;76.34
66835;HTU21D;53743;51.100;5.874;2023-12-29T00:56:49;11.96;76.79
66835;HTU21D;53743;51.100;5.874;2023-12-29T00:57:50;11.98;76.75
66835;HTU21D;53743;51.100;5.874;2023-12-29T00:58:52;12.00;76.53
66835;HTU21D;53743;51.100;5.874;2023-12-29T00:59:54;11.96;76.60
66835;HTU21D;53743;51.100;5.874;2023-12-29T01:00:56;11.97;76.75
66835;HTU21D;53743;51.100;5.874;2023-12-29T01:01:57;11.94;76.94
66835;HTU21D;53743;51.100;5.874;2023-12-29T01:02:59;11.96;76.89
66835;HTU21D;53743;51.100;5.874;2023-12-29T01:04:00;11.96;76.90
66835;HTU21D;53743;51.100;5.874;2023-12-29T01:05:02;11.93;77.00
66835;HTU21D;53743;51.100;5.874;2023-12-29T01:06:04;11.92;77.16
66835;HTU21D;53743;51.100;5.874;2023-12-29T01:07:06;11.91;77.09
66835;HTU21D;53743;51.100;5.874;2023-12-29T01:08:07;11.93;76.86
66835;HTU21D;53743;51.100;5.874;2023-12-29T01:09:10;11.92;77.27
66835;HTU21D;53743;51.100;5.874;2023-12-29T01:10:14;11.89;77.36
66835;HTU21D;53743;51.100;5.874;2023-12-29T01:11:16;11.97;76.84
66835;HTU21D;53743;51.100;5.874;2023-12-29T01:12:16;11.98;76.76
66835;HTU21D;53743;51.100;5.874;2023-12-29T01:13:19;11.96;77.05
66835;HTU21D;53743;51.100;5.874;2023-12-29T01:14:20;11.93;77.31
66835;HTU21D;53743;51.100;5.874;2023-12-29T01:15:21;11.92;77.11
66835;HTU21D;53743;51.100;5.874;2023-12-29T01:16:23;11.96;76.99
66835;HTU21D;53743;51.100;5.874;2023-12-29T01:17:24;11.96;77.01
66835;HTU21D;53743;51.100;5.874;2023-12-29T01:18:28;11.91;77.28
66835;HTU21D;53743;51.100;5.874;2023-12-29T01:19:29;11.90;77.23
66835;HTU21D;53743;51.100;5.874;2023-12-29T01:20:31;11.88;77.17
66835;HTU21D;53743;51.100;5.874;2023-12-29T01:21:32;11.89;77.38
66835;HTU21D;53743;51.100;5.874;2023-12-29T01:22:34;11.93;77.11
66835;HTU21D;53743;51.100;5.874;2023-12-29T01:23:36;11.92;77.19
66835;HTU21D;53743;51.100;5.874;2023-12-29T01:24:39;11.89;77.41
66835;HTU21D;53743;51.100;5.874;2023-12-29T01:25:41;11.91;77.31
66835;HTU21D;53743;51.100;5.874;2023-12-29T01:26:43;11.94;77.19
66835;HTU21D;53743;51.100;5.874;2023-12-29T01:27:45;11.89;77.66
66835;HTU21D;53743;51.100;5.874;2023-12-29T01:28:47;11.90;77.47
66835;HTU21D;53743;51.100;5.874;2023-12-29T01:29:48;11.87;77.81
66835;HTU21D;53743;51.100;5.874;2023-12-29T01:30:49;11.85;77.66
66835;HTU21D;53743;51.100;5.874;2023-12-29T01:31:51;11.91;77.50
66835;HTU21D;53743;51.100;5.874;2023-12-29T01:32:52;11.88;77.69
66835;HTU21D;53743;51.100;5.874;2023-12-29T01:33:54;11.87;77.98
66835;HTU21D;53743;51.100;5.874;2023-12-29T01:34:55;11.86;78.40
66835;HTU21D;53743;51.100;5.874;2023-12-29T01:35:56;11.87;78.10
66835;HTU21D;53743;51.100;5.874;2023-12-29T01:36:58;11.87;77.77
66835;HTU21D;53743;51.100;5.874;2023-12-29T01:37:59;11.88;77.63
66835;HTU21D;53743;51.100;5.874;2023-12-29T01:39:02;11.89;77.76
66835;HTU21D;53743;51.100;5.874;2023-12-29T01:40:04;11.87;77.75
66835;HTU21D;53743;51.100;5.874;2023-12-29T01:41:08;11.89;78.33
66835;HTU21D;53743;51.100;5.874;2023-12-29T01:42:09;11.88;78.79
66835;HTU21D;53743;51.100;5.874;2023-12-29T01:43:13;11.87;78.66
66835;HTU21D;53743;51.100;5.874;2023-12-29T01:44:21;11.88;79.09
66835;HTU21D;53743;51.100;5.874;2023-12-29T01:45:24;11.90;78.93
66835;HTU21D;53743;51.100;5.874;2023-12-29T01:46:29;11.91;79.11
66835;HTU21D;53743;51.100;5.874;2023-12-29T01:47:32;11.87;78.99
66835;HTU21D;53743;51.100;5.874;2023-12-29T01:48:33;11.85;79.78
66835;HTU21D;53743;51.100;5.874;2023-12-29T01:49:37;11.87;79.53
66835;HTU21D;53743;51.100;5.874;2023-12-29T01:50:38;11.79;80.04
66835;HTU21D;53743;51.100;5.874;2023-12-29T01:51:42;11.85;79.39
66835;HTU21D;53743;51.100;5.874;2023-12-29T01:52:46;11.85;79.39
66835;HTU21D;53743;51.100;5.874;2023-12-29T01:53:50;11.84;79.40
66835;HTU21D;53743;51.100;5.874;2023-12-29T01:54:53;11.81;79.60
66835;HTU21D;53743;51.100;5.874;2023-12-29T01:55:56;11.82;79.64
66835;HTU21D;53743;51.100;5.874;2023-12-29T01:57:00;11.84;79.53
66835;HTU21D;53743;51.100;5.874;2023-12-29T01:58:04;11.87;79.58
66835;HTU21D;53743;51.100;5.874;2023-12-29T01:59:05;11.81;80.31
66835;HTU21D;53743;51.100;5.874;2023-12-29T02:00:07;11.84;80.12
66835;HTU21D;53743;51.100;5.874;2023-12-29T02:01:14;11.81;80.88
66835;HTU21D;53743;51.100;5.874;2023-12-29T02:02:17;11.81;80.83
66835;HTU21D;53743;51.100;5.874;2023-12-29T02:03:19;11.81;80.71
66835;HTU21D;53743;51.100;5.874;2023-12-29T02:04:23;11.77;80.60
66835;HTU21D;53743;51.100;5.874;2023-12-29T02:05:26;11.77;81.14
66835;HTU21D;53743;51.100;5.874;2023-12-29T02:06:31;11.77;81.01
66835;HTU21D;53743;51.100;5.874;2023-12-29T02:07:36;11.74;80.94
66835;HTU21D;53743;51.100;5.874;2023-12-29T02:08:37;11.74;81.02
66835;HTU21D;53743;51.100;5.874;2023-12-29T02:09:40;11.70;81.17
66835;HTU21D;53743;51.100;5.874;2023-12-29T02:10:42;11.73;80.85
66835;HTU21D;53743;51.100;5.874;2023-12-29T02:11:44;11.69;81.20
66835;HTU21D;53743;51.100;5.874;2023-12-29T02:12:47;11.73;80.90
66835;HTU21D;53743;51.100;5.874;2023-12-29T02:13:49;11.76;80.44
66835;HTU21D;53743;51.100;5.874;2023-12-29T02:14:52;11.77;80.60
66835;HTU21D;53743;51.100;5.874;2023-12-29T02:15:57;11.77;80.90
66835;HTU21D;53743;51.100;5.874;2023-12-29T02:17:13;11.81;80.62
66835;HTU21D;53743;51.100;5.874;2023-12-29T02:18:18;11.78;80.53
66835;HTU21D;53743;51.100;5.874;2023-12-29T02:19:40;11.77;80.44
66835;HTU21D;53743;51.100;5.874;2023-12-29T02:20:42;11.82;80.33
66835;HTU21D;53743;51.100;5.874;2023-12-29T02:21:44;11.81;80.13
66835;HTU21D;53743;51.100;5.874;2023-12-29T02:22:46;11.81;80.24
66835;HTU21D;53743;51.100;5.874;2023-12-29T02:23:48;11.84;79.85
66835;HTU21D;53743;51.100;5.874;2023-12-29T02:24:51;11.84;79.68
66835;HTU21D;53743;51.100;5.874;2023-12-29T02:26:00;11.83;79.82
66835;HTU21D;53743;51.100;5.874;2023-12-29T02:27:21;11.83;79.75
66835;HTU21D;53743;51.100;5.874;2023-12-29T02:28:40;11.78;79.98
66835;HTU21D;53743;51.100;5.874;2023-12-29T02:29:51;11.84;79.81
66835;HTU21D;53743;51.100;5.874;2023-12-29T02:31:09;11.83;79.75
66835;HTU21D;53743;51.100;5.874;2023-12-29T02:32:18;11.86;79.67
66835;HTU21D;53743;51.100;5.874;2023-12-29T02:33:24;11.87;79.50
66835;HTU21D;53743;51.100;5.874;2023-12-29T02:34:29;11.88;79.24
66835;HTU21D;53743;51.100;5.874;2023-12-29T02:35:39;11.89;79.12
66835;HTU21D;53743;51.100;5.874;2023-12-29T02:36:44;11.92;78.92
66835;HTU21D;53743;51.100;5.874;2023-12-29T02:37:52;11.98;78.69
66835;HTU21D;53743;51.100;5.874;2023-12-29T02:38:55;11.98;78.54
66835;HTU21D;53743;51.100;5.874;2023-12-29T02:39:58;11.93;78.84
66835;HTU21D;53743;51.100;5.874;2023-12-29T02:40:59;11.97;78.59
66835;HTU21D;53743;51.100;5.874;2023-12-29T02:42:02;11.99;78.72
66835;HTU21D;53743;51.100;5.874;2023-12-29T02:43:03;12.01;78.95
66835;HTU21D;53743;51.100;5.874;2023-12-29T02:44:05;12.01;78.60
66835;HTU21D;53743;51.100;5.874;2023-12-29T02:45:07;12.01;78.27
66835;HTU21D;53743;51.100;5.874;2023-12-29T02:46:11;11.98;78.58
66835;HTU21D;53743;51.100;5.874;2023-12-29T02:47:12;12.03;78.43
66835;HTU21D;53743;51.100;5.874;2023-12-29T02:48:14;11.99;78.57
66835;HTU21D;53743;51.100;5.874;2023-12-29T02:49:15;12.02;78.53
66835;HTU21D;53743;51.100;5.874;2023-12-29T02:50:17;11.98;78.60
66835;HTU21D;53743;51.100;5.874;2023-12-29T02:51:18;11.94;78.75
66835;HTU21D;53743;51.100;5.874;2023-12-29T02:52:20;11.99;78.42
66835;HTU21D;53743;51.100;5.874;2023-12-29T02:53:22;12.02;78.14
66835;HTU21D;53743;51.100;5.874;2023-12-29T02:54:23;12.01;78.02
66835;HTU21D;53743;51.100;5.874;2023-12-29T02:55:26;11.98;78.35
66835;HTU21D;53743;51.100;5.874;2023-12-29T02:56:27;12.03;77.85
66835;HTU21D;53743;51.100;5.874;2023-12-29T02:57:29;12.05;77.89
66835;HTU21D;53743;51.100;5.874;2023-12-29T02:58:30;12.12;77.07
66835;HTU21D;53743;51.100;5.874;2023-12-29T02:59:32;12.07;77.22
66835;HTU21D;53743;51.100;5.874;2023-12-29T03:00:34;12.08;77.52
66835;HTU21D;53743;51.100;5.874;2023-12-29T03:01:36;12.06;77.45
66835;HTU21D;53743;51.100;5.874;2023-12-29T03:02:37;12.04;77.76
66835;HTU21D;53743;51.100;5.874;2023-12-29T03:03:38;11.96;78.14
66835;HTU21D;53743;51.100;5.874;2023-12-29T03:04:40;11.98;77.97
66835;HTU21D;53743;51.100;5.874;2023-12-29T03:05:41;12.00;78.08
66835;HTU21D;53743;51.100;5.874;2023-12-29T03:06:43;11.97;78.11
66835;HTU21D;53743;51.100;5.874;2023-12-29T03:07:44;12.00;78.00
66835;HTU21D;53743;51.100;5.874;2023-12-29T03:08:46;11.99;78.15
66835;HTU21D;53743;51.100;5.874;2023-12-29T03:09:47;12.00;78.04
66835;HTU21D;53743;51.100;5.874;2023-12-29T03:10:50;12.04;78.02
66835;HTU21D;53743;51.100;5.874;2023-12-29T03:11:51;11.96;78.34
66835;HTU21D;53743;51.100;5.874;2023-12-29T03:12:53;11.93;78.42
66835;HTU21D;53743;51.100;5.874;2023-12-29T03:13:54;11.91;78.65
66835;HTU21D;53743;51.100;5.874;2023-12-29T03:14:56;11.96;78.59
66835;HTU21D;53743;51.100;5.874;2023-12-29T03:15:57;12.00;78.18
66835;HTU21D;53743;51.100;5.874;2023-12-29T03:16:59;11.97;77.75
66835;HTU21D;53743;51.100;5.874;2023-12-29T03:18:00;12.00;77.71
66835;HTU21D;53743;51.100;5.874;2023-12-29T03:19:02;12.00;77.79
66835;HTU21D;53743;51.100;5.874;2023-12-29T03:20:04;12.07;77.66
66835;HTU21D;53743;51.100;5.874;2023-12-29T03:21:08;12.06;77.70
66835;HTU21D;53743;51.100;5.874;2023-12-29T03:22:09;12.07;77.61
66835;HTU21D;53743;51.100;5.874;2023-12-29T03:23:11;12.12;77.52
66835;HTU21D;53743;51.100;5.874;2023-12-29T03:24:12;12.12;77.26
66835;HTU21D;53743;51.100;5.874;2023-12-29T03:25:14;12.08;77.41
66835;HTU21D;53743;51.100;5.874;2023-12-29T03:26:16;12.08;77.46
66835;HTU21D;53743;51.100;5.874;2023-12-29T03:27:18;12.10;77.23
66835;HTU21D;53743;51.100;5.874;2023-12-29T03:28:19;12.08;77.30
66835;HTU21D;53743;51.100;5.874;2023-12-29T03:29:21;12.08;77.42
66835;HTU21D;53743;51.100;5.874;2023-12-29T03:30:22;12.11;77.34
66835;HTU21D;53743;51.100;5.874;2023-12-29T03:31:24;12.10;77.44
66835;HTU21D;53743;51.100;5.874;2023-12-29T03:32:25;12.10;77.43
66835;HTU21D;53743;51.100;5.874;2023-12-29T03:33:27;12.12;77.38
66835;HTU21D;53743;51.100;5.874;2023-12-29T03:34:29;12.13;77.47
66835;HTU21D;53743;51.100;5.874;2023-12-29T03:35:31;12.06;77.82
66835;HTU21D;53743;51.100;5.874;2023-12-29T03:36:32;12.05;77.85
66835;HTU21D;53743;51.100;5.874;2023-12-29T03:37:34;12.02;79.04
66835;HTU21D;53743;51.100;5.874;2023-12-29T03:38:35;12.06;79.30
66835;HTU21D;53743;51.100;5.874;2023-12-29T03:39:36;12.00;80.74
66835;HTU21D;53743;51.100;5.874;2023-12-29T03:40:39;11.91;81.46
66835;HTU21D;53743;51.100;5.874;2023-12-29T03:41:41;11.90;82.40
66835;HTU21D;53743;51.100;5.874;2023-12-29T03:42:43;11.93;81.02
66835;HTU21D;53743;51.100;5.874;2023-12-29T03:43:44;11.99;80.67
66835;HTU21D;53743;51.100;5.874;2023-12-29T03:44:46;11.91;81.37
66835;HTU21D;53743;51.100;5.874;2023-12-29T03:45:47;11.94;80.88
66835;HTU21D;53743;51.100;5.874;2023-12-29T03:46:49;11.87;81.04
66835;HTU21D;53743;51.100;5.874;2023-12-29T03:47:51;11.85;81.13
66835;HTU21D;53743;51.100;5.874;2023-12-29T03:48:53;11.81;81.10
66835;HTU21D;53743;51.100;5.874;2023-12-29T03:49:54;11.83;80.62
66835;HTU21D;53743;51.100;5.874;2023-12-29T03:50:57;11.84;80.52
66835;HTU21D;53743;51.100;5.874;2023-12-29T03:51:58;11.81;80.42
66835;HTU21D;53743;51.100;5.874;2023-12-29T03:53:00;11.86;80.05
66835;HTU21D;53743;51.100;5.874;2023-12-29T03:54:01;11.82;80.04
66835;HTU21D;53743;51.100;5.874;2023-12-29T03:55:05;11.83;80.12
66835;HTU21D;53743;51.100;5.874;2023-12-29T03:56:08;11.78;79.91
66835;HTU21D;53743;51.100;5.874;2023-12-29T03:57:12;11.76;79.67
66835;HTU21D;53743;51.100;5.874;2023-12-29T03:58:14;11.76;79.40
66835;HTU21D;53743;51.100;5.874;2023-12-29T03:59:17;11.75;79.75
66835;HTU21D;53743;51.100;5.874;2023-12-29T04:00:18;11.79;79.51
66835;HTU21D;53743;51.100;5.874;2023-12-29T04:01:20;11.83;79.17
66835;HTU21D;53743;51.100;5.874;2023-12-29T04:02:21;11.87;78.98
66835;HTU21D;53743;51.100;5.874;2023-12-29T04:03:23;11.86;78.76
66835;HTU21D;53743;51.100;5.874;2023-12-29T04:04:24;11.81;79.11
66835;HTU21D;53743;51.100;5.874;2023-12-29T04:05:26;11.79;79.36
66835;HTU21D;53743;51.100;5.874;2023-12-29T04:06:27;11.79;79.05
66835;HTU21D;53743;51.100;5.874;2023-12-29T04:07:29;11.87;78.72
66835;HTU21D;53743;51.100;5.874;2023-12-29T04:08:30;11.81;79.11
66835;HTU21D;53743;51.100;5.874;2023-12-29T04:09:31;11.77;79.19
66835;HTU21D;53743;51.100;5.874;2023-12-29T04:10:33;11.76;79.32
66835;HTU21D;53743;51.100;5.874;2023-12-29T04:11:34;11.72;79.77
66835;HTU21D;53743;51.100;5.874;2023-12-29T04:12:37;11.78;79.11
66835;HTU21D;53743;51.100;5.874;2023-12-29T04:13:38;11.76;79.33
66835;HTU21D;53743;51.100;5.874;2023-12-29T04:14:41;11.71;79.55
66835;HTU21D;53743;51.100;5.874;2023-12-29T04:15:41;11.79;79.11
66835;HTU21D;53743;51.100;5.874;2023-12-29T04:16:43;11.75;79.41
66835;HTU21D;53743;51.100;5.874;2023-12-29T04:17:44;11.77;79.31
66835;HTU21D;53743;51.100;5.874;2023-12-29T04:18:46;11.77;79.38
66835;HTU21D;53743;51.100;5.874;2023-12-29T04:19:47;11.77;79.20
66835;HTU21D;53743;51.100;5.874;2023-12-29T04:20:48;11.75;79.44
66835;HTU21D;53743;51.100;5.874;2023-12-29T04:21:50;11.71;79.85
66835;HTU21D;53743;51.100;5.874;2023-12-29T04:22:51;11.67;80.15
66835;HTU21D;53743;51.100;5.874;2023-12-29T04:23:53;11.71;79.73
66835;HTU21D;53743;51.100;5.874;2023-12-29T04:24:54;11.66;79.93
66835;HTU21D;53743;51.100;5.874;2023-12-29T04:25:56;11.71;79.73
66835;HTU21D;53743;51.100;5.874;2023-12-29T04:26:57;11.70;79.72
66835;HTU21D;53743;51.100;5.874;2023-12-29T04:28:01;11.73;79.58
66835;HTU21D;53743;51.100;5.874;2023-12-29T04:29:03;11.78;79.33
66835;HTU21D;53743;51.100;5.874;2023-12-29T04:30:06;11.76;79.59
66835;HTU21D;53743;51.100;5.874;2023-12-29T04:31:08;11.72;79.71
66835;HTU21D;53743;51.100;5.874;2023-12-29T04:32:10;11.71;79.76
66835;HTU21D;53743;51.100;5.874;2023-12-29T04:33:11;11.76;79.48
66835;HTU21D;53743;51.100;5.874;2023-12-29T04:34:13;11.74;79.39
66835;HTU21D;53743;51.100;5.874;2023-12-29T04:35:14;11.68;80.05
66835;HTU21D;53743;51.100;5.874;2023-12-29T04:36:16;11.70;79.89
66835;HTU21D;53743;51.100;5.874;2023-12-29T04:37:19;11.69;79.79
66835;HTU21D;53743;51.100;5.874;2023-12-29T04:38:20;11.69;79.76
66835;HTU21D;53743;51.100;5.874;2023-12-29T04:39:25;11.62;80.37
66835;HTU21D;53743;51.100;5.874;2023-12-29T04:40:26;11.62;80.17
66835;HTU21D;53743;51.100;5.874;2023-12-29T04:41:28;11.61;80.30
66835;HTU21D;53743;51.100;5.874;2023-12-29T04:42:29;11.61;80.62
66835;HTU21D;53743;51.100;5.874;2023-12-29T04:43:33;11.70;79.87
66835;HTU21D;53743;51.100;5.874;2023-12-29T04:44:34;11.69;79.84
66835;HTU21D;53743;51.100;5.874;2023-12-29T04:45:35;11.64;80.46
66835;HTU21D;53743;51.100;5.874;2023-12-29T04:46:36;11.63;80.27
66835;HTU21D;53743;51.100;5.874;2023-12-29T04:47:38;11.63;80.27
66835;HTU21D;53743;51.100;5.874;2023-12-29T04:48:39;11.57;80.51
66835;HTU21D;53743;51.100;5.874;2023-12-29T04:49:41;11.55;80.62
66835;HTU21D;53743;51.100;5.874;2023-12-29T04:50:42;11.56;80.74
66835;HTU21D;53743;51.100;5.874;2023-12-29T04:51:44;11.58;80.58
66835;HTU21D;53743;51.100;5.874;2023-12-29T04:52:47;11.58;80.49
66835;HTU21D;53743;51.100;5.874;2023-12-29T04:53:49;11.61;80.01
66835;HTU21D;53743;51.100;5.874;2023-12-29T04:54:50;11.57;80.18
66835;HTU21D;53743;51.100;5.874;2023-12-29T04:55:53;11.56;80.27
66835;HTU21D;53743;51.100;5.874;2023-12-29T04:56:53;11.57;80.30
66835;HTU21D;53743;51.100;5.874;2023-12-29T04:57:55;11.56;80.30
66835;HTU21D;53743;51.100;5.874;2023-12-29T04:58:58;11.59;80.28
66835;HTU21D;53743;51.100;5.874;2023-12-29T04:59:59;11.57;80.29
66835;HTU21D;53743;51.100;5.874;2023-12-29T05:01:02;11.54;80.46
66835;HTU21D;53743;51.100;5.874;2023-12-29T05:02:03;11.59;80.24
66835;HTU21D;53743;51.100;5.874;2023-12-29T05:03:05;11.60;80.17
66835;HTU21D;53743;51.100;5.874;2023-12-29T05:04:06;11.55;80.39
66835;HTU21D;53743;51.100;5.874;2023-12-29T05:05:08;11.59;80.05
66835;HTU21D;53743;51.100;5.874;2023-12-29T05:06:09;11.56;80.18
66835;HTU21D;53743;51.100;5.874;2023-12-29T05:07:11;11.52;80.73
66835;HTU21D;53743;51.100;5.874;2023-12-29T05:08:13;11.47;80.89
66835;HTU21D;53743;51.100;5.874;2023-12-29T05:09:14;11.43;80.94
66835;HTU21D;53743;51.100;5.874;2023-12-29T05:10:16;11.44;81.07
66835;HTU21D;53743;51.100;5.874;2023-12-29T05:11:18;11.40;81.39
66835;HTU21D;53743;51.100;5.874;2023-12-29T05:12:19;11.45;80.93
66835;HTU21D;53743;51.100;5.874;2023-12-29T05:13:21;11.46;81.02
66835;HTU21D;53743;51.100;5.874;2023-12-29T05:14:23;11.42;81.27
66835;HTU21D;53743;51.100;5.874;2023-12-29T05:15:26;11.38;81.03
66835;HTU21D;53743;51.100;5.874;2023-12-29T05:16:27;11.45;80.88
66835;HTU21D;53743;51.100;5.874;2023-12-29T05:17:29;11.44;80.93
66835;HTU21D;53743;51.100;5.874;2023-12-29T05:18:30;11.49;80.40
66835;HTU21D;53743;51.100;5.874;2023-12-29T05:19:32;11.47;80.62
66835;HTU21D;53743;51.100;5.874;2023-12-29T05:20:33;11.48;80.62
66835;HTU21D;53743;51.100;5.874;2023-12-29T05:21:35;11.44;80.79
66835;HTU21D;53743;51.100;5.874;2023-12-29T05:22:36;11.48;80.75
66835;HTU21D;53743;51.100;5.874;2023-12-29T05:23:38;11.48;80.54
66835;HTU21D;53743;51.100;5.874;2023-12-29T05:24:39;11.47;81.10
66835;HTU21D;53743;51.100;5.874;2023-12-29T05:25:41;11.49;80.97
66835;HTU21D;53743;51.100;5.874;2023-12-29T05:26:42;11.51;80.69
66835;HTU21D;53743;51.100;5.874;2023-12-29T05:27:44;11.47;81.14
66835;HTU21D;53743;51.100;5.874;2023-12-29T05:28:45;11.48;80.67
66835;HTU21D;53743;51.100;5.874;2023-12-29T05:29:48;11.49;80.66
66835;HTU21D;53743;51.100;5.874;2023-12-29T05:30:49;11.48;80.72
66835;HTU21D;53743;51.100;5.874;2023-12-29T05:31:51;11.49;81.03
66835;HTU21D;53743;51.100;5.874;2023-12-29T05:32:52;11.43;81.39
66835;HTU21D;53743;51.100;5.874;2023-12-29T05:33:55;11.43;81.36
66835;HTU21D;53743;51.100;5.874;2023-12-29T05:34:56;11.43;81.05
66835;HTU21D;53743;51.100;5.874;2023-12-29T05:35:58;11.45;81.23
66835;HTU21D;53743;51.100;5.874;2023-12-29T05:37:06;11.45;81.19
66835;HTU21D;53743;51.100;5.874;2023-12-29T05:38:08;11.38;81.50
66835;HTU21D;53743;51.100;5.874;2023-12-29T05:39:09;11.46;80.85
66835;HTU21D;53743;51.100;5.874;2023-12-29T05:40:11;11.42;81.44
66835;HTU21D;53743;51.100;5.874;2023-12-29T05:41:13;11.44;80.98
66835;HTU21D;53743;51.100;5.874;2023-12-29T05:42:16;11.41;81.08
66835;HTU21D;53743;51.100;5.874;2023-12-29T05:43:18;11.39;81.14
66835;HTU21D;53743;51.100;5.874;2023-12-29T05:44:20;11.44;81.01
66835;HTU21D;53743;51.100;5.874;2023-12-29T05:45:23;11.42;80.89
66835;HTU21D;53743;51.100;5.874;2023-12-29T05:46:24;11.41;81.07
66835;HTU21D;53743;51.100;5.874;2023-12-29T05:47:26;11.40;81.13
66835;HTU21D;53743;51.100;5.874;2023-12-29T05:48:27;11.41;81.35
66835;HTU21D;53743;51.100;5.874;2023-12-29T05:49:28;11.39;81.30
66835;HTU21D;53743;51.100;5.874;2023-12-29T05:50:32;11.46;81.10
66835;HTU21D;53743;51.100;5.874;2023-12-29T05:51:33;11.47;81.09
66835;HTU21D;53743;51.100;5.874;2023-12-29T05:52:35;11.47;80.94
66835;HTU21D;53743;51.100;5.874;2023-12-29T05:53:37;11.47;80.79
66835;HTU21D;53743;51.100;5.874;2023-12-29T05:54:40;11.53;80.57
66835;HTU21D;53743;51.100;5.874;2023-12-29T05:55:43;11.47;80.76
66835;HTU21D;53743;51.100;5.874;2023-12-29T05:56:44;11.46;81.02
66835;HTU21D;53743;51.100;5.874;2023-12-29T05:57:47;11.44;81.30
66835;HTU21D;53743;51.100;5.874;2023-12-29T05:58:48;11.45;81.32
66835;HTU21D;53743;51.100;5.874;2023-12-29T05:59:50;11.42;81.29
66835;HTU21D;53743;51.100;5.874;2023-12-29T06:00:54;11.43;81.54
66835;HTU21D;53743;51.100;5.874;2023-12-29T06:01:56;11.46;81.21
66835;HTU21D;53743;51.100;5.874;2023-12-29T06:02:57;11.47;81.06
66835;HTU21D;53743;51.100;5.874;2023-12-29T06:03:59;11.49;80.89
66835;HTU21D;53743;51.100;5.874;2023-12-29T06:05:01;11.53;80.57
66835;HTU21D;53743;51.100;5.874;2023-12-29T06:06:03;11.53;80.72
66835;HTU21D;53743;51.100;5.874;2023-12-29T06:07:05;11.51;80.92
66835;HTU21D;53743;51.100;5.874;2023-12-29T06:08:07;11.52;80.55
66835;HTU21D;53743;51.100;5.874;2023-12-29T06:09:09;11.52;80.75
66835;HTU21D;53743;51.100;5.874;2023-12-29T06:10:11;11.52;80.85
66835;HTU21D;53743;51.100;5.874;2023-12-29T06:11:14;11.52;80.80
66835;HTU21D;53743;51.100;5.874;2023-12-29T06:12:17;11.49;80.83
66835;HTU21D;53743;51.100;5.874;2023-12-29T06:13:18;11.54;80.62
66835;HTU21D;53743;51.100;5.874;2023-12-29T06:14:20;11.53;80.94
66835;HTU21D;53743;51.100;5.874;2023-12-29T06:15:21;11.58;80.36
66835;HTU21D;53743;51.100;5.874;2023-12-29T06:16:25;11.58;80.82
66835;HTU21D;53743;51.100;5.874;2023-12-29T06:17:27;11.59;80.81
66835;HTU21D;53743;51.100;5.874;2023-12-29T06:18:29;11.58;80.83
66835;HTU21D;53743;51.100;5.874;2023-12-29T06:19:30;11.59;80.83
66835;HTU21D;53743;51.100;5.874;2023-12-29T06:20:33;11.59;81.28
66835;HTU21D;53743;51.100;5.874;2023-12-29T06:21:40;11.58;81.18
66835;HTU21D;53743;51.100;5.874;2023-12-29T06:22:43;11.66;80.78
66835;HTU21D;53743;51.100;5.874;2023-12-29T06:23:44;11.66;80.94
66835;HTU21D;53743;51.100;5.874;2023-12-29T06:24:47;11.69;80.75
66835;HTU21D;53743;51.100;5.874;2023-12-29T06:25:48;11.69;81.06
66835;HTU21D;53743;51.100;5.874;2023-12-29T06:26:50;11.71;80.76